Time;durP1;ratioP1;P1;durP2;ratioP2;P2;SDS_P1;SDS_P2;PMS_P1;PMS_P2;Temp;Humidity;BMP_temperature;BMP_pressure;BME280_temperature;BME280_humidity;BME280_pressure;Samples;Min_cycle;Max_cycle;Signal;HPM_P1;HPM_P2
2021/06/18 00:01:05;;;;;;;16.13;11.35;;;;;;;23.76;64.15;100005.38;20507065;28;20465;-75
2021/06/18 00:11:07;;;;;;;15.13;12.27;;;;;;;23.64;65.63;99998.28;20505804;28;20057;-76
2021/06/18 00:21:09;;;;;;;16.75;12.98;;;;;;;23.26;66.67;100003.81;20506075;29;20102;-75
2021/06/18 00:31:10;;;;;;;13.55;12.18;;;;;;;22.96;67.75;100009.63;20504784;28;20075;-74
2021/06/18 00:41:12;;;;;;;15.90;12.85;;;;;;;22.57;69.30;100014.19;20503591;29;20410;-75
2021/06/18 00:51:14;;;;;;;18.38;13.05;;;;;;;22.49;69.14;100016.53;20502937;28;20047;-76
2021/06/18 01:01:16;;;;;;;16.52;12.50;;;;;;;22.56;68.58;100030.28;20501663;28;20051;-76
2021/06/18 01:11:35;;;;;;;19.27;12.70;;;;;;;22.40;68.96;100035.88;20502960;29;20055;-77
2021/06/18 01:21:40;;;;;;;16.00;13.07;;;;;;;22.26;69.37;100024.34;20501664;28;20087;-76
2021/06/18 01:31:45;;;;;;;17.10;13.57;;;;;;;22.12;69.56;100034.28;20500402;28;20058;-76
2021/06/18 01:41:49;;;;;;;16.25;13.80;;;;;;;22.12;69.99;100043.13;20502217;29;20432;-76
2021/06/18 01:51:54;;;;;;;16.63;13.90;;;;;;;21.81;70.33;100054.16;20501056;29;20062;-77
2021/06/18 02:01:58;;;;;;;15.97;13.53;;;;;;;21.64;70.27;100040.16;20498927;28;20090;-76
2021/06/18 02:12:00;;;;;;;;;;;;;;;21.81;68.96;100060.34;20499196;29;20121;-77
2021/06/18 02:22:06;;;;;;;17.95;13.18;;;;;;;21.85;69.47;100082.34;20498261;29;20326;-76
2021/06/18 02:32:12;;;;;;;18.50;14.63;;;;;;;21.69;70.10;100074.50;20507257;28;20498;-74
2021/06/18 02:42:13;;;;;;;16.92;13.57;;;;;;;21.66;70.42;100072.06;20514220;29;20126;-75
2021/06/18 02:52:26;;;;;;;18.00;15.68;;;;;;;21.60;71.15;100101.75;20512487;28;20079;-75
2021/06/18 03:02:33;;;;;;;19.77;15.75;;;;;;;21.57;71.83;100118.81;20511524;28;20055;-76
2021/06/18 03:12:41;;;;;;;18.58;14.90;;;;;;;21.52;72.22;100124.44;20511739;29;20421;-76
2021/06/18 03:22:44;;;;;;;18.00;15.55;;;;;;;21.43;72.37;100113.53;20509093;28;20138;-76
2021/06/18 03:32:48;;;;;;;22.08;15.93;;;;;;;21.49;72.13;100139.75;20507896;28;20612;-77
2021/06/18 03:42:51;;;;;;;20.83;16.30;;;;;;;21.56;71.66;100161.50;20506168;28;20494;-76
2021/06/18 03:52:53;;;;;;;19.13;15.60;;;;;;;21.53;71.26;100154.59;20507468;28;20047;-76
2021/06/18 04:02:56;;;;;;;18.38;14.50;;;;;;;21.65;70.51;100158.25;20504716;28;20106;-76
2021/06/18 04:12:59;;;;;;;17.67;13.70;;;;;;;21.68;69.59;100152.72;20505919;29;20054;-76
2021/06/18 04:23:01;;;;;;;15.57;13.60;;;;;;;21.98;67.28;100156.00;20504261;29;20071;-76
2021/06/18 04:33:03;;;;;;;14.93;11.77;;;;;;;22.70;64.16;100168.94;20503353;28;20055;-75
2021/06/18 04:43:05;;;;;;;11.80;10.25;;;;;;;24.19;58.28;100151.81;20504083;29;20482;-76
2021/06/18 04:53:11;;;;;;;12.27;8.93;;;;;;;24.61;55.52;100145.97;20502187;28;20540;-76
2021/06/18 05:03:13;;;;;;;9.15;7.65;;;;;;;24.25;56.53;100142.50;20503891;28;20497;-75
2021/06/18 05:13:15;;;;;;;12.52;8.02;;;;;;;24.11;55.63;100126.66;20501726;29;20051;-75
2021/06/18 05:23:16;;;;;;;9.65;7.55;;;;;;;24.30;55.30;100111.72;20500695;29;20110;-75
2021/06/18 05:33:18;;;;;;;7.90;6.13;;;;;;;24.46;54.80;100105.22;20499190;28;20070;-75
2021/06/18 05:43:20;;;;;;;9.45;6.43;;;;;;;24.72;54.17;100084.41;20498834;29;20390;-74
2021/06/18 05:53:23;;;;;;;8.10;6.00;;;;;;;25.01;54.33;100084.78;20499084;29;20418;-75
2021/06/18 06:03:25;;;;;;;8.77;6.03;;;;;;;25.31;54.12;100116.28;20496599;28;20047;-75
2021/06/18 06:13:27;;;;;;;8.07;4.70;;;;;;;25.40;52.61;100114.69;20497032;29;20083;-75
2021/06/18 06:23:29;;;;;;;9.85;5.03;;;;;;;25.60;50.16;100087.06;20496615;29;20044;-75
2021/06/18 06:33:31;;;;;;;7.28;4.13;;;;;;;25.88;49.13;100069.53;20496874;28;20168;-76
2021/06/18 06:43:33;;;;;;;10.32;4.25;;;;;;;26.06;48.77;100062.63;20496006;28;20051;-75
2021/06/18 06:53:35;;;;;;;10.32;4.95;;;;;;;26.13;50.14;100067.44;20496038;28;20051;-75
2021/06/18 07:03:38;;;;;;;16.38;4.97;;;;;;;26.40;48.88;100085.66;20465604;28;20111;-75
2021/06/18 07:13:39;;;;;;;9.37;4.60;;;;;;;26.67;48.77;100094.03;20443306;29;20054;-75
2021/06/18 07:23:41;;;;;;;13.57;4.90;;;;;;;26.75;47.00;100104.97;20466812;29;20055;-75
2021/06/18 07:33:43;;;;;;;10.35;4.25;;;;;;;27.22;47.26;100107.97;20509789;28;20125;-75
2021/06/18 07:43:45;;;;;;;7.35;4.32;;;;;;;27.51;46.92;100109.88;20452009;29;20068;-76
2021/06/18 07:53:47;;;;;;;7.85;4.53;;;;;;;28.32;43.42;100105.03;20429053;29;20059;-75
2021/06/18 08:03:49;;;;;;;25.48;6.28;;;;;;;28.24;43.83;100115.66;20428208;29;20119;-76
2021/06/18 08:13:51;;;;;;;16.05;6.30;;;;;;;28.36;44.50;100106.44;20455525;29;20043;-76
2021/06/18 08:23:52;;;;;;;12.55;5.82;;;;;;;28.36;43.56;100104.63;20508293;28;20043;-75
2021/06/18 08:33:56;;;;;;;10.75;5.22;;;;;;;29.38;42.49;100114.53;20504697;28;20083;-76
2021/06/18 08:43:59;;;;;;;10.68;5.75;;;;;;;29.95;43.00;100111.59;20505944;29;20059;-75
2021/06/18 08:54:00;;;;;;;8.88;5.90;;;;;;;29.86;41.71;100114.19;20504805;29;20106;-76
2021/06/18 09:04:04;;;;;;;7.57;5.22;;;;;;;29.76;41.77;100107.19;20503301;28;20043;-75
2021/06/18 09:14:36;;;;;;;11.75;6.30;;;;;;;30.37;40.90;100117.97;20475472;29;20047;-75
2021/06/18 09:24:47;;;;;;;11.75;6.38;;;;;;;29.86;41.25;100107.97;20422570;29;20119;-76
2021/06/18 09:45:05;;;;;;;8.60;6.65;;;;;;;30.48;41.93;100075.53;20456884;28;20106;-75
2021/06/18 09:55:09;;;;;;;10.27;7.85;;;;;;;30.61;40.85;100082.16;20499460;29;20055;-75
2021/06/18 10:05:33;;;;;;;11.20;7.38;;;;;;;30.73;41.11;100098.13;20497967;28;20047;-75
2021/06/18 10:15:37;;;;;;;11.10;7.50;;;;;;;30.44;41.63;100088.50;20459271;29;20503;-75
2021/06/18 10:25:50;;;;;;;13.00;8.48;;;;;;;29.86;42.14;100086.38;20418637;29;20055;-75
2021/06/18 10:36:18;;;;;;;14.57;9.32;;;;;;;30.17;42.72;100084.09;20415432;29;20059;-75
2021/06/18 10:46:35;;;;;;;13.88;8.38;;;;;;;30.26;41.88;100063.38;20417684;29;20051;-74
2021/06/18 10:56:47;;;;;;;13.10;8.40;;;;;;;31.14;39.68;100061.25;20432726;29;20430;-75
2021/06/18 11:06:50;;;;;;;10.70;8.20;;;;;;;30.71;41.59;100046.09;20432141;29;20051;-74
2021/06/18 11:16:51;;;;;;;12.77;7.32;;;;;;;31.28;40.31;100039.00;20480503;29;20517;-74
2021/06/18 11:27:22;;;;;;;11.32;7.80;;;;;;;31.28;40.19;100030.91;20509954;29;20126;-75
2021/06/18 11:37:32;;;;;;;12.73;8.32;;;;;;;32.38;39.58;100018.69;20449937;29;20110;-75
2021/06/18 11:47:34;;;;;;;12.73;8.63;;;;;;;32.12;38.93;100018.06;20428814;29;20055;-74
2021/06/18 11:57:37;;;;;;;13.03;8.13;;;;;;;32.43;38.16;100020.88;20468557;29;20055;-75
2021/06/18 12:07:39;;;;;;;;;;;;;;;32.30;37.80;100007.84;20506246;28;20113;-75
2021/06/18 12:17:51;;;;;;;11.02;6.68;;;;;;;32.57;35.74;99997.59;20450385;29;19934;-74
2021/06/18 12:28:01;;;;;;;11.10;7.60;;;;;;;32.88;34.78;99992.22;20426806;29;20118;-74
2021/06/18 12:38:05;;;;;;;10.45;6.90;;;;;;;33.12;35.49;99993.97;20425424;29;20043;-75
2021/06/18 12:48:13;;;;;;;10.20;6.72;;;;;;;33.20;34.91;99988.47;20425603;29;20503;-74
2021/06/18 12:58:23;;;;;;;10.15;6.78;;;;;;;33.05;32.98;99992.97;20424862;29;20055;-74
2021/06/18 13:08:25;;;;;;;11.82;7.15;;;;;;;32.97;34.88;99982.19;20422867;29;20048;-75
2021/06/18 13:18:26;;;;;;;11.77;7.47;;;;;;;33.23;35.59;99968.28;20484773;29;20235;-74
2021/06/18 13:28:47;;;;;;;12.37;6.77;;;;;;;33.34;32.43;99957.81;20501360;29;20470;-74
2021/06/18 13:38:49;;;;;;;10.70;6.50;;;;;;;33.43;31.52;99948.63;20500214;29;20047;-75
2021/06/18 13:48:51;;;;;;;;;;;;;;;33.24;32.22;99943.66;20500616;29;20070;-75
2021/06/18 13:58:53;;;;;;;13.10;6.65;;;;;;;33.38;32.28;99933.88;20499824;29;19922;-74
2021/06/18 14:08:54;;;;;;;13.87;6.60;;;;;;;33.31;32.29;99922.09;20498833;29;20098;-74
2021/06/18 14:18:56;;;;;;;9.63;6.73;;;;;;;33.52;32.35;99902.41;20432699;29;20521;-75
2021/06/18 14:28:58;;;;;;;9.50;6.57;;;;;;;33.64;32.30;99896.34;20418421;29;20048;-75
2021/06/18 14:39:00;;;;;;;9.38;5.57;;;;;;;33.91;32.82;99888.56;20418219;29;20043;-75
2021/06/18 14:49:02;;;;;;;8.45;6.10;;;;;;;33.83;31.19;99899.53;20419501;29;20562;-76
2021/06/18 14:59:04;;;;;;;9.63;5.85;;;;;;;33.90;31.48;99881.44;20418193;29;20058;-76
2021/06/18 15:09:05;;;;;;;14.68;5.40;;;;;;;33.96;30.85;99883.44;20416393;29;20047;-76
2021/06/18 15:19:07;;;;;;;10.43;5.97;;;;;;;33.85;29.47;99892.88;20484746;29;20062;-76
2021/06/18 15:29:09;;;;;;;9.83;5.40;;;;;;;34.19;29.84;99884.16;20495580;29;20079;-76
2021/06/18 15:39:13;;;;;;;9.40;5.50;;;;;;;33.93;30.14;99871.06;20503933;28;20117;-75
2021/06/18 15:49:15;;;;;;;9.23;5.82;;;;;;;34.32;31.22;99867.19;20508292;28;20378;-75
2021/06/18 15:59:16;;;;;;;13.97;6.83;;;;;;;34.03;32.87;99878.13;20507983;29;20051;-75
2021/06/18 16:09:18;;;;;;;12.90;6.73;;;;;;;33.99;33.73;99863.22;20506498;29;20295;-75
2021/06/18 16:19:19;;;;;;;11.57;6.27;;;;;;;33.23;34.71;99863.28;20437545;29;20577;-75
2021/06/18 16:29:21;;;;;;;9.70;6.30;;;;;;;32.91;35.58;99867.97;20426368;29;20555;-75
2021/06/18 16:39:24;;;;;;;12.33;6.27;;;;;;;32.59;36.25;99873.59;20425438;29;20040;-74
2021/06/18 16:49:28;;;;;;;10.90;6.93;;;;;;;32.37;37.29;99867.13;20476675;28;20051;-75
2021/06/18 16:59:30;;;;;;;10.30;7.05;;;;;;;32.04;38.62;99875.38;20502686;28;20055;-75
2021/06/18 17:09:32;;;;;;;12.03;6.27;;;;;;;31.57;40.16;99883.44;20501022;28;20040;-74
2021/06/18 17:19:36;;;;;;;11.13;6.00;;;;;;;31.28;40.32;99898.34;20429539;29;20425;-74
2021/06/18 17:29:37;;;;;;;11.00;5.35;;;;;;;31.15;39.37;99911.53;20420814;29;20311;-75
2021/06/18 17:39:39;;;;;;;11.77;5.28;;;;;;;31.10;38.74;99917.44;20420772;29;20040;-74
2021/06/18 17:49:41;;;;;;;14.80;4.97;;;;;;;31.34;38.57;99924.75;20408110;29;20489;-75
2021/06/18 17:59:43;;;;;;;13.57;4.57;;;;;;;31.34;37.50;99919.34;20419860;29;20450;-75
2021/06/18 18:09:45;;;;;;;13.45;5.85;;;;;;;31.32;36.94;99936.72;20421102;29;20040;-75
2021/06/18 18:19:47;;;;;;;15.07;5.27;;;;;;;31.21;38.66;99946.00;20492239;29;20556;-75
2021/06/18 18:29:49;;;;;;;11.55;4.97;;;;;;;30.89;40.39;99966.56;20497606;29;20460;-75
2021/06/18 18:39:52;;;;;;;14.57;5.17;;;;;;;30.45;41.49;99973.16;20497493;29;20091;-75
2021/06/18 18:49:56;;;;;;;13.90;5.85;;;;;;;29.93;43.20;99968.63;20496795;28;20498;-75
2021/06/18 19:00:04;;;;;;;13.75;5.32;;;;;;;29.55;44.86;99980.69;20495049;29;20102;-74
2021/06/18 19:10:06;;;;;;;11.35;5.68;;;;;;;29.24;46.73;100004.50;20499675;28;20047;-74
2021/06/18 19:20:11;;;;;;;9.98;5.75;;;;;;;28.99;47.96;99992.63;20435431;29;20056;-75
2021/06/18 19:30:14;;;;;;;11.52;5.30;;;;;;;28.68;48.85;100002.84;20430886;29;20495;-74
2021/06/18 19:40:19;;;;;;;9.75;5.43;;;;;;;28.35;50.36;100030.19;20430565;29;20482;-74
2021/06/18 19:50:22;;;;;;;8.82;5.43;;;;;;;28.03;50.55;100073.63;20429800;29;20048;-74
2021/06/18 20:00:24;;;;;;;19.77;5.90;;;;;;;27.33;45.58;100101.63;20428543;29;20043;-74
2021/06/18 20:10:25;;;;;;;16.42;4.50;;;;;;;26.89;45.36;100119.88;20428242;29;20678;-74
2021/06/18 20:20:31;;;;;;;12.43;5.05;;;;;;;25.48;53.48;100125.59;20504710;28;20043;-74
2021/06/18 20:30:32;;;;;;;15.53;6.40;;;;;;;25.01;58.88;100160.63;20505623;29;20047;-74
2021/06/18 20:40:37;;;;;;;21.98;8.05;;;;;;;24.09;66.26;100247.13;20505509;29;20059;-71
2021/06/18 20:50:40;;;;;;;19.63;9.07;;;;;;;22.30;76.63;100202.84;20504856;28;20048;-71
2021/06/18 21:00:42;;;;;;;17.27;8.20;;;;;;;22.24;73.81;100188.13;20503363;29;20039;-71
2021/06/18 21:10:43;;;;;;;21.13;11.15;;;;;;;22.60;84.59;100216.75;20502194;29;20102;-72
2021/06/18 21:20:45;;;;;;;23.35;12.95;;;;;;;22.75;84.16;100183.66;20423412;29;20051;-72
2021/06/18 21:30:48;;;;;;;18.27;11.98;;;;;;;22.71;84.63;100187.53;20424034;29;20074;-72
2021/06/18 21:40:50;;;;;;;21.63;12.75;;;;;;;22.85;82.37;100185.69;20422507;29;20052;-72
2021/06/18 21:50:51;;;;;;;16.73;12.25;;;;;;;22.99;83.11;100196.28;20419608;29;20047;-72
2021/06/18 22:00:53;;;;;;;21.80;11.60;;;;;;;22.99;80.82;100257.72;20419773;29;20115;-72
2021/06/18 22:10:55;;;;;;;14.32;9.93;;;;;;;23.07;80.05;100246.50;20519769;28;20047;-73
2021/06/18 22:20:57;;;;;;;15.05;6.95;;;;;;;22.88;76.63;100214.84;20577318;28;20047;-73
2021/06/18 22:30:59;;;;;;;13.35;7.25;;;;;;;22.74;77.01;100240.69;20576625;28;20127;-71
2021/06/18 22:41:01;;;;;;;14.25;8.60;;;;;;;22.69;79.73;100225.97;20576416;28;20492;-70
2021/06/18 22:51:03;;;;;;;14.30;6.80;;;;;;;22.75;76.17;100229.03;20589041;28;20061;-70
2021/06/18 23:01:10;;;;;;;12.40;6.50;;;;;;;22.80;74.57;100223.38;20591474;28;20517;-72
2021/06/18 23:11:12;;;;;;;12.13;6.60;;;;;;;22.83;72.67;100200.97;20591026;28;20086;-72
2021/06/18 23:21:15;;;;;;;13.60;5.80;;;;;;;22.72;73.39;100226.59;20590953;28;20055;-72
2021/06/18 23:31:17;;;;;;;12.70;5.78;;;;;;;22.64;72.63;100236.94;20589231;28;20548;-71
2021/06/18 23:41:19;;;;;;;10.88;5.78;;;;;;;22.51;72.92;100222.72;20588529;28;20046;-73
2021/06/18 23:51:21;;;;;;;14.38;6.18;;;;;;;22.12;77.27;100231.59;20587494;28;20054;-72
